createdAt,value
2016-09-12T00:00:41.716Z,0
2016-09-12T00:01:41.720Z,0
2016-09-12T00:02:41.446Z,0
2016-09-12T00:03:41.516Z,0
2016-09-12T00:04:41.807Z,0
2016-09-12T00:05:41.874Z,0
2016-09-12T00:06:41.568Z,0
2016-09-12T00:07:41.545Z,0
2016-09-12T00:08:41.930Z,0
2016-09-12T00:09:41.875Z,0
2016-09-12T00:10:41.920Z,0
2016-09-12T00:11:42.052Z,0
2016-09-12T00:12:41.653Z,0
2016-09-12T00:13:42.354Z,0
2016-09-12T00:14:41.832Z,0
2016-09-12T00:15:41.715Z,0
2016-09-12T00:16:41.858Z,0
2016-09-12T00:17:42.110Z,0
2016-09-12T00:18:41.800Z,0
2016-09-12T00:19:42.115Z,0
2016-09-12T00:20:42.549Z,0
2016-09-12T00:21:42.462Z,0
2016-09-12T00:22:41.927Z,0
2016-09-12T00:23:42.277Z,0
2016-09-12T00:24:42.035Z,0
2016-09-12T00:25:42.262Z,0
2016-09-12T00:26:42.508Z,0
2016-09-12T00:27:42.035Z,0
2016-09-12T00:28:42.021Z,0
2016-09-12T00:29:42.058Z,0
2016-09-12T00:30:42.356Z,0
2016-09-12T00:31:42.062Z,0
2016-09-12T00:32:42.158Z,0
2016-09-12T00:33:42.241Z,0
2016-09-12T00:34:42.338Z,0
2016-09-12T00:35:42.134Z,0
2016-09-12T00:36:42.198Z,0
2016-09-12T00:37:42.542Z,0
2016-09-12T00:38:42.276Z,0
2016-09-12T00:39:42.889Z,0
2016-09-12T00:40:42.339Z,0
2016-09-12T00:41:42.289Z,0
2016-09-12T00:42:42.764Z,0
2016-09-12T00:43:42.328Z,0
2016-09-12T00:44:42.433Z,0
2016-09-12T00:45:42.407Z,0
2016-09-12T00:46:42.427Z,0
2016-09-12T00:47:42.426Z,0
2016-09-12T00:48:42.565Z,0
2016-09-12T00:49:42.779Z,0
2016-09-12T00:50:42.796Z,0
2016-09-12T00:51:42.981Z,0
2016-09-12T00:52:42.836Z,0
2016-09-12T00:53:42.916Z,0
2016-09-12T00:54:42.567Z,0
2016-09-12T00:55:42.746Z,0
2016-09-12T00:56:43.074Z,0
2016-09-12T00:57:42.672Z,0
2016-09-12T00:58:42.731Z,0
2016-09-12T00:59:43.160Z,0
2016-09-12T01:00:43.040Z,0
2016-09-12T01:01:42.750Z,0
2016-09-12T01:02:42.774Z,0
2016-09-12T01:03:43.078Z,0
2016-09-12T01:04:42.823Z,0
2016-09-12T01:05:42.862Z,0
2016-09-12T01:06:42.861Z,0
2016-09-12T01:07:43.188Z,0
2016-09-12T01:08:43.200Z,0
2016-09-12T01:09:43.217Z,0
2016-09-12T01:10:42.947Z,0
2016-09-12T01:11:42.932Z,0
2016-09-12T01:12:43.403Z,0
2016-09-12T01:13:42.999Z,0
2016-09-12T01:14:43.031Z,0
2016-09-12T01:15:43.360Z,0
2016-09-12T01:16:43.383Z,0
2016-09-12T01:17:43.078Z,0
2016-09-12T01:18:43.128Z,0
2016-09-12T01:19:43.466Z,0
2016-09-12T01:20:43.142Z,0
2016-09-12T01:21:43.629Z,0
2016-09-12T01:22:43.509Z,0
2016-09-12T01:23:43.208Z,0
2016-09-12T01:24:43.246Z,0
2016-09-12T01:25:44.216Z,0
2016-09-12T01:26:43.297Z,0
2016-09-12T01:27:43.330Z,0
2016-09-12T01:28:43.331Z,0
2016-09-12T01:29:43.399Z,0
2016-09-12T01:30:43.386Z,0
2016-09-12T01:31:44.196Z,0
2016-09-12T01:32:43.820Z,0
2016-09-12T01:33:43.496Z,0
2016-09-12T01:34:43.958Z,0
2016-09-12T01:35:43.483Z,0
2016-09-12T01:36:43.510Z,0
2016-09-12T01:37:43.848Z,0
2016-09-12T01:38:43.928Z,0
2016-09-12T01:39:43.568Z,0
2016-09-12T01:40:43.626Z,0
2016-09-12T01:41:43.650Z,0
2016-09-12T01:42:43.633Z,0
2016-09-12T01:43:43.969Z,0
2016-09-12T01:44:44.401Z,0
2016-09-12T01:45:43.733Z,0
2016-09-12T01:46:44.419Z,0
2016-09-12T01:47:44.067Z,0
2016-09-12T01:48:44.399Z,0
2016-09-12T01:49:43.797Z,0
2016-09-12T01:50:43.806Z,0
2016-09-12T01:51:43.841Z,0
2016-09-12T01:52:44.554Z,0
2016-09-12T01:53:43.900Z,0
2016-09-12T01:54:44.230Z,0
2016-09-12T01:55:44.025Z,0
2016-09-12T01:56:43.987Z,0
2016-09-12T01:57:44.338Z,0
2016-09-12T01:58:44.036Z,0
2016-09-12T01:59:44.335Z,0
2016-09-12T02:00:44.189Z,0
2016-09-12T02:01:44.366Z,0
2016-09-12T02:02:44.394Z,0
2016-09-12T02:03:44.549Z,0
2016-09-12T02:04:44.149Z,0
2016-09-12T02:05:44.181Z,0
2016-09-12T02:06:45.205Z,0
2016-09-12T02:07:44.588Z,0
2016-09-12T02:08:44.268Z,0
2016-09-12T02:09:44.548Z,0
2016-09-12T02:10:44.573Z,0
2016-09-12T02:11:44.259Z,0
2016-09-12T02:12:44.735Z,0
2016-09-12T02:13:44.680Z,0
2016-09-12T02:14:44.376Z,0
2016-09-12T02:15:44.367Z,0
2016-09-12T02:16:44.423Z,0
2016-09-12T02:17:44.737Z,0
2016-09-12T02:18:45.488Z,0
2016-09-12T02:19:44.439Z,0
2016-09-12T02:20:44.598Z,0
2016-09-12T02:21:44.561Z,0
2016-09-12T02:22:44.624Z,0
2016-09-12T02:23:44.899Z,0
2016-09-12T02:24:44.704Z,0
2016-09-12T02:25:44.891Z,0
2016-09-12T02:26:45.129Z,0
2016-09-12T02:27:44.820Z,0
2016-09-12T02:28:44.659Z,0
2016-09-12T02:29:44.696Z,0
2016-09-12T02:30:44.997Z,0
2016-09-12T02:31:45.043Z,0
2016-09-12T02:32:44.758Z,0
2016-09-12T02:33:44.805Z,0
2016-09-12T02:34:44.792Z,0
2016-09-12T02:35:45.116Z,0
2016-09-12T02:36:45.163Z,0
2016-09-12T02:37:45.140Z,0
2016-09-12T02:38:44.883Z,0
2016-09-12T02:39:45.196Z,0
2016-09-12T02:40:44.910Z,0
2016-09-12T02:41:44.929Z,0
2016-09-12T02:42:44.950Z,0
2016-09-12T02:43:44.986Z,0
2016-09-12T02:44:45.338Z,0
2016-09-12T02:45:45.343Z,0
2016-09-12T02:46:45.387Z,0
2016-09-12T02:47:45.067Z,0
2016-09-12T02:48:45.083Z,0
2016-09-12T02:49:45.096Z,0
2016-09-12T02:50:45.149Z,0
2016-09-12T02:51:45.152Z,0
2016-09-12T02:52:45.202Z,0
2016-09-12T02:53:45.509Z,0
2016-09-12T02:54:45.240Z,0
2016-09-12T02:55:45.325Z,0
2016-09-12T02:56:45.593Z,0
2016-09-12T02:57:45.287Z,0
2016-09-12T02:58:45.627Z,0
2016-09-12T02:59:45.335Z,56
2016-09-12T03:00:45.378Z,0
2016-09-12T03:01:45.692Z,0
2016-09-12T03:02:45.415Z,0
2016-09-12T03:03:45.466Z,0
2016-09-12T03:04:45.459Z,0
2016-09-12T03:05:45.854Z,0
2016-09-12T03:06:45.847Z,0
2016-09-12T03:07:45.916Z,0
2016-09-12T03:08:45.531Z,0
2016-09-12T03:09:45.702Z,0
2016-09-12T03:10:46.114Z,0
2016-09-12T03:11:45.857Z,0
2016-09-12T03:12:45.789Z,0
2016-09-12T03:13:45.813Z,0
2016-09-12T03:14:46.317Z,0
2016-09-12T03:15:46.181Z,0
2016-09-12T03:16:45.825Z,0
2016-09-12T03:17:46.196Z,0
2016-09-12T03:18:46.158Z,0
2016-09-12T03:19:45.856Z,0
2016-09-12T03:20:45.943Z,0
2016-09-12T03:21:45.874Z,0
2016-09-12T03:22:46.294Z,0
2016-09-12T03:23:45.850Z,0
2016-09-12T03:24:46.219Z,0
2016-09-12T03:25:46.570Z,0
2016-09-12T03:26:46.003Z,0
2016-09-12T03:27:45.965Z,0
2016-09-12T03:28:46.122Z,0
2016-09-12T03:29:46.333Z,0
2016-09-12T03:30:46.123Z,0
2016-09-12T03:31:46.115Z,0
2016-09-12T03:32:46.517Z,0
2016-09-12T03:33:46.136Z,0
2016-09-12T03:34:46.084Z,0
2016-09-12T03:35:46.247Z,0
2016-09-12T03:36:46.182Z,0
2016-09-12T03:37:46.492Z,0
2016-09-12T03:38:46.225Z,0
2016-09-12T03:39:46.218Z,0
2016-09-12T03:40:46.240Z,0
2016-09-12T03:41:46.245Z,0
2016-09-12T03:42:46.334Z,0
2016-09-12T03:43:46.616Z,0
2016-09-12T03:44:46.717Z,0
2016-09-12T03:45:46.379Z,0
2016-09-12T03:46:47.574Z,0
2016-09-12T03:47:46.706Z,0
2016-09-12T03:48:46.735Z,0
2016-09-12T03:49:46.434Z,0
2016-09-12T03:50:46.492Z,0
2016-09-12T03:51:47.099Z,0
2016-09-12T03:52:47.294Z,0
2016-09-12T03:53:46.834Z,0
2016-09-12T03:54:46.836Z,0
2016-09-12T03:55:46.858Z,0
2016-09-12T03:56:46.675Z,0
2016-09-12T03:57:46.903Z,0
2016-09-12T03:58:46.680Z,0
2016-09-12T03:59:46.647Z,0
2016-09-12T04:00:46.995Z,0
2016-09-12T04:01:46.715Z,0
2016-09-12T04:02:47.016Z,0
2016-09-12T04:03:47.135Z,0
2016-09-12T04:04:46.796Z,0
2016-09-12T04:05:46.792Z,0
2016-09-12T04:06:46.797Z,0
2016-09-12T04:07:46.895Z,0
2016-09-12T04:08:46.846Z,0
2016-09-12T04:09:47.543Z,0
2016-09-12T04:10:46.878Z,0
2016-09-12T04:11:47.570Z,0
2016-09-12T04:12:47.675Z,0
2016-09-12T04:13:47.258Z,0
2016-09-12T04:14:46.969Z,0
2016-09-12T04:15:47.508Z,4
2016-09-12T04:16:47.459Z,0
2016-09-12T04:17:48.070Z,0
2016-09-12T04:18:47.049Z,4
2016-09-12T04:19:47.088Z,4
2016-09-12T04:20:47.418Z,4
2016-09-12T04:21:47.119Z,8
2016-09-12T04:22:47.893Z,8
2016-09-12T04:23:47.490Z,8
2016-09-12T04:24:47.204Z,8
2016-09-12T04:25:47.206Z,12
2016-09-12T04:26:47.561Z,8
2016-09-12T04:27:47.550Z,12
2016-09-12T04:28:47.589Z,16
2016-09-12T04:29:47.324Z,16
2016-09-12T04:30:47.324Z,20
2016-09-12T04:31:47.657Z,24
2016-09-12T04:32:47.680Z,28
2016-09-12T04:33:47.544Z,32
2016-09-12T04:34:47.424Z,40
2016-09-12T04:35:47.465Z,44
2016-09-12T04:36:47.764Z,52
2016-09-12T04:37:47.454Z,60
2016-09-12T04:38:47.824Z,72
2016-09-12T04:39:47.538Z,80
2016-09-12T04:40:47.847Z,88
2016-09-12T04:41:47.536Z,104
2016-09-12T04:42:47.919Z,116
2016-09-12T04:43:48.069Z,132
2016-09-12T04:44:47.630Z,148
2016-09-12T04:45:47.963Z,168
2016-09-12T04:46:47.669Z,188
2016-09-12T04:47:47.717Z,208
2016-09-12T04:48:47.717Z,228
2016-09-12T04:49:48.030Z,252
2016-09-12T04:50:47.756Z,276
2016-09-12T04:51:48.266Z,304
2016-09-12T04:52:48.498Z,332
2016-09-12T04:53:47.880Z,364
2016-09-12T04:54:47.909Z,392
2016-09-12T04:55:47.865Z,428
2016-09-12T04:56:48.240Z,464
2016-09-12T04:57:48.222Z,496
2016-09-12T04:58:48.229Z,536
2016-09-12T04:59:48.271Z,576
2016-09-12T05:00:48.008Z,616
2016-09-12T05:01:47.988Z,656
2016-09-12T05:02:48.316Z,704
2016-09-12T05:03:48.389Z,748
2016-09-12T05:04:48.374Z,796
2016-09-12T05:05:48.125Z,840
2016-09-12T05:06:48.097Z,888
2016-09-12T05:07:48.213Z,940
2016-09-12T05:08:48.456Z,992
2016-09-12T05:09:48.194Z,1044
2016-09-12T05:10:48.220Z,1096
2016-09-12T05:11:48.348Z,1152
2016-09-12T05:12:48.237Z,1208
2016-09-12T05:13:48.551Z,1264
2016-09-12T05:14:48.620Z,1324
2016-09-12T05:15:48.326Z,1380
2016-09-12T05:16:48.627Z,1436
2016-09-12T05:17:48.362Z,1496
2016-09-12T05:18:48.947Z,1560
2016-09-12T05:19:48.706Z,1616
2016-09-12T05:20:48.958Z,1676
2016-09-12T05:21:48.450Z,1736
2016-09-12T05:22:48.772Z,1792
2016-09-12T05:23:48.464Z,1852
2016-09-12T05:24:48.566Z,1912
2016-09-12T05:25:48.622Z,1976
2016-09-12T05:26:49.286Z,2032
2016-09-12T05:27:48.826Z,2092
2016-09-12T05:28:49.248Z,2148
2016-09-12T05:29:49.084Z,2208
2016-09-12T05:30:48.925Z,2260
2016-09-12T05:31:48.779Z,2320
2016-09-12T05:32:49.389Z,2380
2016-09-12T05:33:49.393Z,2440
2016-09-12T05:34:48.948Z,2496
2016-09-12T05:35:48.827Z,2552
2016-09-12T05:36:49.287Z,2608
2016-09-12T05:37:49.130Z,2660
2016-09-12T05:38:49.215Z,2708
2016-09-12T05:39:48.887Z,2748
2016-09-12T05:40:49.367Z,2800
2016-09-12T05:41:49.469Z,2844
2016-09-12T05:42:49.209Z,2904
2016-09-12T05:43:48.929Z,2972
2016-09-12T05:44:48.940Z,3048
2016-09-12T05:45:49.046Z,3184
2016-09-12T05:46:50.273Z,3404
2016-09-12T05:47:49.380Z,3684
2016-09-12T05:48:49.029Z,4072
2016-09-12T05:49:49.657Z,4532
2016-09-12T05:50:49.036Z,5372
2016-09-12T05:51:50.215Z,6460
2016-09-12T05:52:49.130Z,6984
2016-09-12T05:53:49.139Z,7152
2016-09-12T05:54:49.184Z,7296
2016-09-12T05:55:49.598Z,7432
2016-09-12T05:56:49.239Z,7556
2016-09-12T05:57:49.523Z,7688
2016-09-12T05:58:49.338Z,7852
2016-09-12T05:59:49.270Z,8076
2016-09-12T06:00:49.314Z,8296
2016-09-12T06:01:49.331Z,8468
2016-09-12T06:02:49.709Z,8740
2016-09-12T06:03:49.410Z,8964
2016-09-12T06:04:49.696Z,9236
2016-09-12T06:05:49.847Z,9440
2016-09-12T06:06:49.455Z,9516
2016-09-12T06:07:50.079Z,9600
2016-09-12T06:08:49.766Z,9644
2016-09-12T06:09:56.043Z,9804
2016-09-12T06:10:50.014Z,10012
2016-09-12T06:11:49.574Z,10428
2016-09-12T06:12:50.283Z,11508
2016-09-12T06:13:50.009Z,11796
2016-09-12T06:14:49.988Z,11756
2016-09-12T06:15:49.852Z,11832
2016-09-12T06:16:49.707Z,11648
2016-09-12T06:17:50.968Z,11468
2016-09-12T06:18:50.449Z,12068
2016-09-12T06:19:49.762Z,13188
2016-09-12T06:20:54.479Z,13824
2016-09-12T06:23:11.030Z,12160
2016-09-12T06:24:30.657Z,14208
2016-09-12T06:24:40.708Z,14496
2016-09-12T06:25:40.829Z,14848
2016-09-12T06:26:41.164Z,13260
2016-09-12T06:27:41.054Z,13160
2016-09-12T06:28:41.125Z,14016
2016-09-12T06:29:40.967Z,14688
2016-09-12T06:30:41.170Z,15168
2016-09-12T06:31:40.869Z,14008
2016-09-12T06:32:41.224Z,13748
2016-09-12T06:33:40.932Z,13720
2016-09-12T06:34:41.270Z,13368
2016-09-12T06:35:41.315Z,13920
2016-09-12T06:36:41.028Z,13836
2016-09-12T06:37:41.445Z,14112
2016-09-12T06:38:40.538Z,14400
2016-09-12T06:39:41.119Z,16032
2016-09-12T06:40:52.189Z,18400
2016-09-12T06:58:55.031Z,39008
2016-09-12T07:10:43.013Z,34848
2016-09-12T13:07:34.363Z,5176
2016-09-12T13:08:34.389Z,5180
2016-09-12T13:09:34.723Z,5188
2016-09-12T13:10:33.827Z,5196
2016-09-12T13:11:34.161Z,5208
2016-09-12T13:12:34.943Z,5212
2016-09-12T13:13:34.536Z,5216
2016-09-12T13:14:34.976Z,5228
2016-09-12T13:15:34.596Z,5244
2016-09-12T13:16:34.649Z,5256
2016-09-12T13:17:35.062Z,5264
2016-09-12T13:18:34.988Z,5280
2016-09-12T13:19:35.022Z,5296
2016-09-12T13:20:35.184Z,5316
2016-09-12T13:21:34.989Z,5340
2016-09-12T13:22:35.129Z,5356
2016-09-12T13:23:35.191Z,5364
2016-09-12T13:24:34.552Z,5372
2016-09-12T13:25:35.030Z,5372
2016-09-12T13:26:35.231Z,5372
2016-09-12T13:27:35.248Z,5376
2016-09-12T13:28:35.058Z,5380
2016-09-12T13:29:35.313Z,5376
2016-09-12T13:30:35.347Z,5364
2016-09-12T13:31:35.413Z,5352
2016-09-12T13:32:35.154Z,5340
2016-09-12T13:33:35.142Z,5324
2016-09-12T13:34:35.486Z,5316
2016-09-12T13:35:35.201Z,5304
2016-09-12T13:36:35.224Z,5296
2016-09-12T13:37:35.554Z,5284
2016-09-12T13:38:34.961Z,5288
2016-09-12T13:39:34.680Z,5268
2016-09-12T13:40:35.647Z,5260
2016-09-12T13:41:35.357Z,5252
2016-09-12T13:42:35.757Z,5248
2016-09-12T13:43:35.891Z,5248
2016-09-12T13:44:35.382Z,5248
2016-09-12T13:45:35.815Z,5244
2016-09-12T13:46:35.864Z,5236
2016-09-12T13:47:35.874Z,5228
2016-09-12T13:48:35.783Z,5228
2016-09-12T13:49:35.908Z,5220
2016-09-12T13:50:35.637Z,5216
2016-09-12T13:51:35.969Z,5212
2016-09-12T13:52:36.116Z,5212
2016-09-12T13:53:35.713Z,5204
2016-09-12T13:54:35.840Z,5196
2016-09-12T13:55:36.085Z,5188
2016-09-12T13:56:36.115Z,5184
2016-09-12T13:57:36.139Z,5168
2016-09-12T13:58:35.867Z,5160
2016-09-12T13:59:36.226Z,5152
2016-09-12T14:00:35.932Z,5144
2016-09-12T14:01:36.294Z,5136
2016-09-12T14:02:36.346Z,5132
2016-09-12T14:03:36.332Z,5128
2016-09-12T14:04:36.373Z,5124
2016-09-12T14:05:36.109Z,5120
2016-09-12T14:06:35.802Z,5116
2016-09-12T14:07:36.500Z,5116
2016-09-12T14:08:35.860Z,5112
2016-09-12T14:09:36.493Z,5112
2016-09-12T14:10:36.560Z,5112
2016-09-12T14:11:36.575Z,5112
2016-09-12T14:12:36.696Z,5104
2016-09-12T14:13:36.302Z,5092
2016-09-12T14:14:36.334Z,5084
2016-09-12T14:15:36.694Z,5076
2016-09-12T14:16:36.751Z,5068
2016-09-12T14:17:36.771Z,5064
2016-09-12T14:18:36.775Z,5056
2016-09-12T14:19:36.493Z,5048
2016-09-12T14:20:36.875Z,5044
2016-09-12T14:21:36.885Z,5032
2016-09-12T14:22:36.963Z,5028
2016-09-12T14:23:36.611Z,5016
2016-09-12T14:24:37.082Z,5012
2016-09-12T14:25:36.679Z,5004
2016-09-12T14:26:36.999Z,4992
2016-09-12T14:27:37.033Z,4980
2016-09-12T14:28:37.098Z,4972
2016-09-12T14:29:36.810Z,4960
2016-09-12T14:30:36.500Z,4952
2016-09-12T14:31:37.172Z,4940
2016-09-12T14:32:37.251Z,4928
2016-09-12T14:33:37.312Z,4916
2016-09-12T14:34:37.251Z,4908
2016-09-12T14:35:37.275Z,4900
2016-09-12T14:36:37.312Z,4896
2016-09-12T14:37:37.352Z,4888
2016-09-12T14:38:37.353Z,4880
2016-09-12T14:39:37.395Z,4876
2016-09-12T14:40:37.273Z,4864
2016-09-12T14:41:37.577Z,4864
2016-09-12T14:42:37.482Z,4856
2016-09-12T14:43:37.593Z,4852
2016-09-12T14:44:37.380Z,4848
2016-09-12T14:45:37.591Z,4844
2016-09-12T14:46:37.632Z,4840
2016-09-12T14:47:37.340Z,4832
2016-09-12T14:48:37.665Z,4828
2016-09-12T14:49:37.706Z,4824
2016-09-12T14:50:37.720Z,4816
2016-09-12T14:51:37.446Z,4812
2016-09-12T14:52:37.954Z,4800
2016-09-12T14:53:38.006Z,4792
2016-09-12T14:54:38.008Z,4784
2016-09-12T14:55:37.985Z,4776
2016-09-12T14:56:37.935Z,4768
2016-09-12T14:57:37.973Z,4760
2016-09-12T14:58:37.645Z,4752
2016-09-12T14:59:37.671Z,4744
2016-09-12T15:00:37.703Z,4736
2016-09-12T15:01:37.985Z,4732
2016-09-12T15:02:37.758Z,4724
2016-09-12T15:03:38.075Z,4716
2016-09-12T15:04:38.040Z,4708
2016-09-12T15:05:38.079Z,4708
2016-09-12T15:06:38.226Z,4700
2016-09-12T15:07:37.668Z,4696
2016-09-12T15:08:38.285Z,4692
2016-09-12T15:09:38.001Z,4688
2016-09-12T15:10:38.035Z,4692
2016-09-12T15:11:38.371Z,4692
2016-09-12T15:12:38.391Z,4688
2016-09-12T15:13:38.411Z,4676
2016-09-12T15:14:38.445Z,4660
2016-09-12T15:15:38.164Z,4652
2016-09-12T15:16:38.502Z,4648
2016-09-12T15:17:38.541Z,4640
2016-09-12T15:18:38.256Z,4632
2016-09-12T15:19:38.589Z,4624
2016-09-12T15:20:38.615Z,4616
2016-09-12T15:21:38.352Z,4608
2016-09-12T15:22:38.709Z,4596
2016-09-12T15:23:38.401Z,4584
2016-09-12T15:24:38.742Z,4572
2016-09-12T15:25:38.465Z,4552
2016-09-12T15:26:38.796Z,4540
2016-09-12T15:27:38.828Z,4532
2016-09-12T15:28:38.856Z,4520
2016-09-12T15:29:38.577Z,4516
2016-09-12T15:30:38.996Z,4504
2016-09-12T15:31:38.961Z,4492
2016-09-12T15:32:38.663Z,4480
2016-09-12T15:33:38.713Z,4468
2016-09-12T15:34:38.732Z,4460
2016-09-12T15:35:39.074Z,4448
2016-09-12T15:36:39.084Z,4432
2016-09-12T15:37:39.105Z,4416
2016-09-12T15:38:38.834Z,4396
2016-09-12T15:39:39.181Z,4376
2016-09-12T15:40:38.886Z,4360
2016-09-12T15:41:38.924Z,4348
2016-09-12T15:42:38.963Z,4340
2016-09-12T15:43:39.314Z,4324
2016-09-12T15:44:38.744Z,4312
2016-09-12T15:45:39.355Z,4296
2016-09-12T15:46:39.079Z,4280
2016-09-12T15:47:39.122Z,4264
2016-09-12T15:48:39.135Z,4244
2016-09-12T15:49:39.466Z,4232
2016-09-12T15:50:39.527Z,4212
2016-09-12T15:51:39.567Z,4192
2016-09-12T15:52:39.608Z,4176
2016-09-12T15:53:39.643Z,4152
2016-09-12T15:54:39.314Z,4128
2016-09-12T15:55:39.036Z,4112
2016-09-12T15:56:39.358Z,4092
2016-09-12T15:57:39.524Z,4072
2016-09-12T15:58:39.115Z,4056
2016-09-12T15:59:39.764Z,4032
2016-09-12T16:00:39.839Z,4008
2016-09-12T16:01:39.827Z,3984
2016-09-12T16:02:39.872Z,3968
2016-09-12T16:03:39.631Z,3956
2016-09-12T16:04:39.631Z,3932
2016-09-12T16:05:39.633Z,3912
2016-09-12T16:06:39.976Z,3884
2016-09-12T16:07:40.022Z,3864
2016-09-12T16:08:40.048Z,3844
2016-09-12T16:09:39.458Z,3828
2016-09-12T16:10:39.488Z,3804
2016-09-12T16:11:40.146Z,3780
2016-09-12T16:12:39.863Z,3756
2016-09-12T16:13:40.213Z,3736
2016-09-12T16:14:39.917Z,3708
2016-09-12T16:15:39.934Z,3680
2016-09-12T16:16:40.285Z,3660
2016-09-12T16:17:40.007Z,3636
2016-09-12T16:18:40.034Z,3612
2016-09-12T16:19:40.040Z,3592
2016-09-12T16:20:40.413Z,3564
2016-09-12T16:21:40.109Z,3540
2016-09-12T16:22:40.148Z,3512
2016-09-12T16:23:40.162Z,3484
2016-09-12T16:24:40.503Z,3456
2016-09-12T16:25:40.523Z,3428
2016-09-12T16:26:40.609Z,3396
2016-09-12T16:27:40.612Z,3368
2016-09-12T16:28:40.648Z,3340
2016-09-12T16:29:40.670Z,3312
2016-09-12T16:30:40.853Z,3280
2016-09-12T16:31:40.714Z,3248
2016-09-12T16:32:40.821Z,3212
2016-09-12T16:33:40.850Z,3180
2016-09-12T16:34:40.488Z,3148
2016-09-12T16:35:40.510Z,3116
2016-09-12T16:36:41.845Z,3084
2016-09-12T16:37:41.176Z,3052
2016-09-12T16:38:41.089Z,3028
2016-09-12T16:39:40.811Z,3000
2016-09-12T16:40:41.038Z,2964
2016-09-12T16:41:41.172Z,2924
2016-09-12T16:42:40.999Z,2892
2016-09-12T16:43:41.131Z,2852
2016-09-12T16:44:41.243Z,2812
2016-09-12T16:45:40.803Z,2776
2016-09-12T16:46:41.206Z,2732
2016-09-12T16:47:40.865Z,2700
2016-09-12T16:48:41.242Z,2660
2016-09-12T16:49:40.956Z,2620
2016-09-12T16:50:41.032Z,2584
2016-09-12T16:51:40.913Z,2548
2016-09-12T16:52:40.873Z,2508
2016-09-12T16:53:41.379Z,2472
2016-09-12T16:54:41.363Z,2432
2016-09-12T16:55:41.123Z,2392
2016-09-12T16:56:41.147Z,2352
2016-09-12T16:57:41.504Z,2308
2016-09-12T16:58:41.196Z,2264
2016-09-12T16:59:41.560Z,2220
2016-09-12T17:00:41.295Z,2176
2016-09-12T17:01:41.710Z,2124
2016-09-12T17:02:41.624Z,2080
2016-09-12T17:03:41.113Z,2036
2016-09-12T17:04:41.358Z,1988
2016-09-12T17:05:41.731Z,1944
2016-09-12T17:06:41.836Z,1896
2016-09-12T17:07:41.803Z,1900
2016-09-12T17:08:41.767Z,1804
2016-09-12T17:09:41.816Z,1760
2016-09-12T17:10:41.838Z,1712
2016-09-12T17:11:41.888Z,1664
2016-09-12T17:12:41.921Z,1620
2016-09-12T17:13:41.628Z,1576
2016-09-12T17:14:41.983Z,1528
2016-09-12T17:15:41.377Z,1480
2016-09-12T17:16:42.022Z,1432
2016-09-12T17:17:42.059Z,1384
2016-09-12T17:18:41.755Z,1340
2016-09-12T17:19:42.112Z,1292
2016-09-12T17:20:41.812Z,1248
2016-09-12T17:21:41.553Z,1204
2016-09-12T17:22:42.208Z,1156
2016-09-12T17:23:42.330Z,1108
2016-09-12T17:24:41.934Z,1064
2016-09-12T17:25:42.258Z,1020
2016-09-12T17:26:42.292Z,976
2016-09-12T17:27:42.062Z,932
2016-09-12T17:28:42.363Z,892
2016-09-12T17:29:42.067Z,848
2016-09-12T17:30:42.175Z,808
2016-09-12T17:31:42.442Z,764
2016-09-12T17:32:42.486Z,724
2016-09-12T17:33:42.494Z,688
2016-09-12T17:34:42.541Z,648
2016-09-12T17:35:42.237Z,612
2016-09-12T17:36:42.244Z,576
2016-09-12T17:37:42.272Z,540
2016-09-12T17:38:42.311Z,508
2016-09-12T17:39:42.351Z,472
2016-09-12T17:40:42.061Z,444
2016-09-12T17:41:42.842Z,412
2016-09-12T17:42:42.434Z,384
2016-09-12T17:43:42.450Z,352
2016-09-12T17:44:42.861Z,328
2016-09-12T17:45:42.538Z,300
2016-09-12T17:46:42.876Z,272
2016-09-12T17:47:42.884Z,248
2016-09-12T17:48:42.603Z,228
2016-09-12T17:49:42.952Z,204
2016-09-12T17:50:42.955Z,184
2016-09-12T17:52:14.648Z,156
2016-09-12T17:52:43.165Z,152
2016-09-12T17:53:43.065Z,136
2016-09-12T17:54:43.110Z,116
2016-09-12T17:55:43.121Z,104
2016-09-12T17:56:42.810Z,92
2016-09-12T17:57:43.172Z,80
2016-09-12T17:58:43.182Z,68
2016-09-12T17:59:42.283Z,60
2016-09-12T18:00:42.941Z,48
2016-09-12T18:01:43.040Z,44
2016-09-12T18:02:43.012Z,40
2016-09-12T18:03:43.003Z,32
2016-09-12T18:04:43.363Z,28
2016-09-12T18:05:43.470Z,20
2016-09-12T18:06:43.420Z,20
2016-09-12T18:07:43.202Z,16
2016-09-12T18:08:43.147Z,16
2016-09-12T18:09:43.520Z,12
2016-09-12T18:10:43.528Z,8
2016-09-12T18:11:43.762Z,8
2016-09-12T18:12:43.316Z,4
2016-09-12T18:13:43.293Z,4
2016-09-12T18:14:43.318Z,4
2016-09-12T18:15:43.663Z,4
2016-09-12T18:16:43.763Z,4
2016-09-12T18:17:43.089Z,4
2016-09-12T18:18:43.764Z,4
2016-09-12T18:19:43.440Z,4
2016-09-12T18:20:43.165Z,0
2016-09-12T18:21:43.824Z,0
2016-09-12T18:22:43.852Z,0
2016-09-12T18:23:43.885Z,0
2016-09-12T18:24:44.030Z,0
2016-09-12T18:25:43.625Z,0
2016-09-12T18:26:43.854Z,0
2016-09-12T18:27:44.099Z,0
2016-09-12T18:28:44.356Z,0
2016-09-12T18:29:44.230Z,0
2016-09-12T18:30:44.219Z,0
2016-09-12T18:31:43.912Z,0
2016-09-12T18:32:44.150Z,0
2016-09-12T18:33:43.872Z,0
2016-09-12T18:34:44.181Z,0
2016-09-12T18:35:44.330Z,0
2016-09-12T18:36:43.670Z,0
2016-09-12T18:37:43.923Z,0
2016-09-12T18:38:44.431Z,0
2016-09-12T18:39:44.331Z,0
2016-09-12T18:40:44.404Z,0
2016-09-12T18:41:44.353Z,0
2016-09-12T18:42:44.376Z,0
2016-09-12T18:43:45.841Z,0
2016-09-12T18:44:44.185Z,0
2016-09-12T18:45:44.540Z,0
2016-09-12T18:46:44.579Z,0
2016-09-12T18:47:44.521Z,0
2016-09-12T18:48:44.789Z,0
2016-09-12T18:49:44.621Z,0
2016-09-12T18:50:44.315Z,0
2016-09-12T18:51:44.323Z,0
2016-09-12T18:52:44.714Z,0
2016-09-12T18:53:44.384Z,0
2016-09-12T18:54:44.482Z,0
2016-09-12T18:55:44.793Z,0
2016-09-12T18:56:45.046Z,0
2016-09-12T18:57:44.841Z,0
2016-09-12T18:58:44.862Z,0
2016-09-12T18:59:44.573Z,0
2016-09-12T19:00:44.926Z,0
2016-09-12T19:01:44.925Z,0
2016-09-12T19:02:44.947Z,0
2016-09-12T19:03:44.664Z,0
2016-09-12T19:04:44.994Z,0
2016-09-12T19:05:44.836Z,0
2016-09-12T19:06:45.277Z,0
2016-09-12T19:07:45.173Z,0
2016-09-12T19:08:45.123Z,0
2016-09-12T19:09:44.840Z,0
2016-09-12T19:10:45.170Z,0
2016-09-12T19:11:44.965Z,0
2016-09-12T19:12:44.943Z,0
2016-09-12T19:13:45.222Z,0
2016-09-12T19:14:44.968Z,0
2016-09-12T19:15:44.982Z,0
2016-09-12T19:16:45.365Z,0
2016-09-12T19:17:45.365Z,0
2016-09-12T19:18:45.388Z,0
2016-09-12T19:19:45.421Z,0
2016-09-12T19:20:45.432Z,0
2016-09-12T19:21:45.607Z,0
2016-09-12T19:22:44.872Z,0
2016-09-12T19:23:45.530Z,0
2016-09-12T19:24:45.531Z,0
2016-09-12T19:25:45.226Z,0
2016-09-12T19:26:45.751Z,0
2016-09-12T19:27:45.265Z,0
2016-09-12T19:28:45.609Z,0
2016-09-12T19:29:45.685Z,0
2016-09-12T19:30:45.470Z,0
2016-09-12T19:31:45.082Z,0
2016-09-12T19:32:45.443Z,0
2016-09-12T19:33:45.448Z,0
2016-09-12T19:34:45.171Z,0
2016-09-12T19:35:45.793Z,0
2016-09-12T19:36:45.860Z,0
2016-09-12T19:37:45.873Z,0
2016-09-12T19:38:45.883Z,0
2016-09-12T19:39:45.933Z,0
2016-09-12T19:40:45.641Z,0
2016-09-12T19:41:45.671Z,0
2016-09-12T19:42:46.021Z,0
2016-09-12T19:43:46.030Z,0
2016-09-12T19:44:46.065Z,0
2016-09-12T19:45:45.797Z,0
2016-09-12T19:46:46.144Z,0
2016-09-12T19:47:46.144Z,0
2016-09-12T19:48:46.206Z,0
2016-09-12T19:49:46.283Z,0
2016-09-12T19:50:45.954Z,0
2016-09-12T19:51:46.273Z,0
2016-09-12T19:52:45.952Z,0
2016-09-12T19:53:46.325Z,0
2016-09-12T19:54:46.328Z,0
2016-09-12T19:55:46.043Z,0
2016-09-12T19:56:46.389Z,0
2016-09-12T19:57:46.067Z,0
2016-09-12T19:58:46.477Z,0
2016-09-12T19:59:45.802Z,0
2016-09-12T20:00:46.234Z,0
2016-09-12T20:01:46.509Z,0
2016-09-12T20:02:46.207Z,0
2016-09-12T20:03:46.223Z,0
2016-09-12T20:04:46.011Z,0
2016-09-12T20:05:46.301Z,0
2016-09-12T20:06:46.333Z,0
2016-09-12T20:07:46.385Z,0
2016-09-12T20:08:46.663Z,0
2016-09-12T20:09:46.381Z,0
2016-09-12T20:10:46.756Z,0
2016-09-12T20:11:46.758Z,0
2016-09-12T20:12:46.138Z,0
2016-09-12T20:13:46.491Z,0
2016-09-12T20:14:46.893Z,0
2016-09-12T20:15:45.932Z,0
2016-09-12T20:16:46.901Z,0
2016-09-12T20:17:46.931Z,0
2016-09-12T20:18:46.305Z,0
2016-09-12T20:19:46.954Z,0
2016-09-12T20:20:47.014Z,0
2016-09-12T20:21:47.123Z,0
2016-09-12T20:22:47.113Z,0
2016-09-12T20:23:46.774Z,0
2016-09-12T20:24:47.106Z,0
2016-09-12T20:25:47.125Z,0
2016-09-12T20:26:47.152Z,0